sensor_id;sensor_type;location;lat;lon;timestamp;P1;durP1;ratioP1;P2;durP2;ratioP2
41943;SDS011;27636;52.610;13.244;2023-07-13T00:03:49;6.18;;;2.90;;
41943;SDS011;27636;52.610;13.244;2023-07-13T00:08:54;3.95;;;1.98;;
41943;SDS011;27636;52.610;13.244;2023-07-13T00:13:57;6.90;;;2.80;;
41943;SDS011;27636;52.610;13.244;2023-07-13T00:19:01;10.52;;;3.55;;
41943;SDS011;27636;52.610;13.244;2023-07-13T00:24:06;6.25;;;2.75;;
41943;SDS011;27636;52.610;13.244;2023-07-13T00:29:10;7.43;;;2.63;;
41943;SDS011;27636;52.610;13.244;2023-07-13T00:34:13;4.78;;;2.22;;
41943;SDS011;27636;52.610;13.244;2023-07-13T00:39:19;6.28;;;2.25;;
41943;SDS011;27636;52.610;13.244;2023-07-13T00:44:23;5.00;;;2.33;;
41943;SDS011;27636;52.610;13.244;2023-07-13T00:49:29;5.07;;;2.65;;
41943;SDS011;27636;52.610;13.244;2023-07-13T00:54:36;5.45;;;2.83;;
41943;SDS011;27636;52.610;13.244;2023-07-13T00:59:45;6.32;;;2.60;;
41943;SDS011;27636;52.610;13.244;2023-07-13T01:04:52;4.68;;;2.25;;
41943;SDS011;27636;52.610;13.244;2023-07-13T01:09:57;6.75;;;3.03;;
41943;SDS011;27636;52.610;13.244;2023-07-13T01:15:00;4.75;;;2.53;;
41943;SDS011;27636;52.610;13.244;2023-07-13T01:20:06;6.32;;;3.30;;
41943;SDS011;27636;52.610;13.244;2023-07-13T01:25:13;8.10;;;2.30;;
41943;SDS011;27636;52.610;13.244;2023-07-13T01:30:19;6.72;;;3.05;;
41943;SDS011;27636;52.610;13.244;2023-07-13T01:35:23;9.20;;;2.70;;
41943;SDS011;27636;52.610;13.244;2023-07-13T01:40:31;6.80;;;2.85;;
41943;SDS011;27636;52.610;13.244;2023-07-13T01:45:34;7.45;;;3.15;;
41943;SDS011;27636;52.610;13.244;2023-07-13T01:50:39;6.05;;;2.60;;
41943;SDS011;27636;52.610;13.244;2023-07-13T01:55:44;9.45;;;3.28;;
41943;SDS011;27636;52.610;13.244;2023-07-13T02:00:48;7.22;;;3.13;;
41943;SDS011;27636;52.610;13.244;2023-07-13T02:05:53;5.05;;;2.67;;
41943;SDS011;27636;52.610;13.244;2023-07-13T02:10:59;7.80;;;2.95;;
41943;SDS011;27636;52.610;13.244;2023-07-13T02:16:02;5.90;;;2.65;;
41943;SDS011;27636;52.610;13.244;2023-07-13T02:21:07;5.63;;;2.70;;
41943;SDS011;27636;52.610;13.244;2023-07-13T02:26:12;6.05;;;2.85;;
41943;SDS011;27636;52.610;13.244;2023-07-13T02:31:16;9.02;;;2.92;;
41943;SDS011;27636;52.610;13.244;2023-07-13T02:41:26;7.07;;;3.40;;
41943;SDS011;27636;52.610;13.244;2023-07-13T02:46:30;9.38;;;3.47;;
41943;SDS011;27636;52.610;13.244;2023-07-13T02:51:34;7.53;;;2.90;;
41943;SDS011;27636;52.610;13.244;2023-07-13T02:56:39;8.55;;;3.33;;
41943;SDS011;27636;52.610;13.244;2023-07-13T03:01:44;5.93;;;2.90;;
41943;SDS011;27636;52.610;13.244;2023-07-13T03:06:48;7.30;;;3.08;;
41943;SDS011;27636;52.610;13.244;2023-07-13T03:11:53;7.78;;;2.97;;
41943;SDS011;27636;52.610;13.244;2023-07-13T03:17:03;12.48;;;3.10;;
41943;SDS011;27636;52.610;13.244;2023-07-13T03:22:10;10.82;;;3.55;;
41943;SDS011;27636;52.610;13.244;2023-07-13T03:27:18;6.60;;;3.38;;
41943;SDS011;27636;52.610;13.244;2023-07-13T03:32:24;6.50;;;3.20;;
41943;SDS011;27636;52.610;13.244;2023-07-13T03:42:34;9.07;;;3.38;;
41943;SDS011;27636;52.610;13.244;2023-07-13T03:52:42;5.28;;;2.75;;
41943;SDS011;27636;52.610;13.244;2023-07-13T03:57:52;7.57;;;3.47;;
41943;SDS011;27636;52.610;13.244;2023-07-13T04:03:00;5.23;;;2.27;;
41943;SDS011;27636;52.610;13.244;2023-07-13T04:08:06;5.78;;;3.10;;
41943;SDS011;27636;52.610;13.244;2023-07-13T04:13:11;6.68;;;3.30;;
41943;SDS011;27636;52.610;13.244;2023-07-13T04:18:16;6.28;;;2.92;;
41943;SDS011;27636;52.610;13.244;2023-07-13T04:23:19;6.00;;;3.03;;
41943;SDS011;27636;52.610;13.244;2023-07-13T04:28:25;5.65;;;2.20;;
41943;SDS011;27636;52.610;13.244;2023-07-13T04:33:29;6.85;;;3.10;;
41943;SDS011;27636;52.610;13.244;2023-07-13T04:38:33;6.90;;;3.13;;
41943;SDS011;27636;52.610;13.244;2023-07-13T04:43:38;8.73;;;3.47;;
41943;SDS011;27636;52.610;13.244;2023-07-13T04:48:41;4.80;;;2.38;;
41943;SDS011;27636;52.610;13.244;2023-07-13T04:53:44;7.93;;;2.78;;
41943;SDS011;27636;52.610;13.244;2023-07-13T04:58:49;5.32;;;2.53;;
41943;SDS011;27636;52.610;13.244;2023-07-13T05:03:53;5.05;;;2.30;;
41943;SDS011;27636;52.610;13.244;2023-07-13T05:08:59;5.45;;;2.60;;
41943;SDS011;27636;52.610;13.244;2023-07-13T05:14:04;5.93;;;2.13;;
41943;SDS011;27636;52.610;13.244;2023-07-13T05:24:11;7.43;;;2.63;;
41943;SDS011;27636;52.610;13.244;2023-07-13T05:29:28;3.63;;;1.85;;
41943;SDS011;27636;52.610;13.244;2023-07-13T05:34:32;3.55;;;1.77;;
41943;SDS011;27636;52.610;13.244;2023-07-13T05:39:35;3.00;;;1.75;;
41943;SDS011;27636;52.610;13.244;2023-07-13T05:44:40;5.68;;;1.85;;
41943;SDS011;27636;52.610;13.244;2023-07-13T05:49:44;3.28;;;1.77;;
41943;SDS011;27636;52.610;13.244;2023-07-13T05:54:47;6.03;;;2.08;;
41943;SDS011;27636;52.610;13.244;2023-07-13T05:59:52;4.88;;;1.95;;
41943;SDS011;27636;52.610;13.244;2023-07-13T06:04:57;2.70;;;1.48;;
41943;SDS011;27636;52.610;13.244;2023-07-13T06:10:06;2.88;;;1.50;;
41943;SDS011;27636;52.610;13.244;2023-07-13T06:15:11;5.95;;;1.73;;
41943;SDS011;27636;52.610;13.244;2023-07-13T06:20:15;3.03;;;1.60;;
41943;SDS011;27636;52.610;13.244;2023-07-13T06:25:19;3.53;;;1.80;;
41943;SDS011;27636;52.610;13.244;2023-07-13T06:30:24;4.03;;;1.93;;
41943;SDS011;27636;52.610;13.244;2023-07-13T06:35:28;3.67;;;1.60;;
41943;SDS011;27636;52.610;13.244;2023-07-13T06:40:31;4.80;;;1.75;;
41943;SDS011;27636;52.610;13.244;2023-07-13T06:45:43;4.38;;;2.47;;
41943;SDS011;27636;52.610;13.244;2023-07-13T06:50:52;4.28;;;2.30;;
41943;SDS011;27636;52.610;13.244;2023-07-13T06:55:56;3.67;;;1.67;;
41943;SDS011;27636;52.610;13.244;2023-07-13T07:01:01;5.27;;;1.83;;
41943;SDS011;27636;52.610;13.244;2023-07-13T07:06:08;2.60;;;1.50;;
41943;SDS011;27636;52.610;13.244;2023-07-13T07:11:19;2.58;;;1.30;;
41943;SDS011;27636;52.610;13.244;2023-07-13T07:16:27;2.92;;;1.48;;
41943;SDS011;27636;52.610;13.244;2023-07-13T07:21:30;2.45;;;1.58;;
41943;SDS011;27636;52.610;13.244;2023-07-13T07:26:34;4.10;;;1.50;;
41943;SDS011;27636;52.610;13.244;2023-07-13T07:31:59;5.20;;;2.40;;
41943;SDS011;27636;52.610;13.244;2023-07-13T07:37:10;6.50;;;1.70;;
41943;SDS011;27636;52.610;13.244;2023-07-13T07:42:18;5.65;;;1.60;;
41943;SDS011;27636;52.610;13.244;2023-07-13T07:47:23;5.15;;;1.70;;
41943;SDS011;27636;52.610;13.244;2023-07-13T07:52:27;6.22;;;1.60;;
41943;SDS011;27636;52.610;13.244;2023-07-13T07:57:31;2.90;;;1.20;;
41943;SDS011;27636;52.610;13.244;2023-07-13T08:08:21;5.03;;;1.17;;
41943;SDS011;27636;52.610;13.244;2023-07-13T08:13:25;2.23;;;1.10;;
41943;SDS011;27636;52.610;13.244;2023-07-13T08:18:30;3.35;;;1.23;;
41943;SDS011;27636;52.610;13.244;2023-07-13T08:23:35;4.30;;;1.20;;
41943;SDS011;27636;52.610;13.244;2023-07-13T08:33:54;1.08;;;0.73;;
41943;SDS011;27636;52.610;13.244;2023-07-13T08:38:57;2.35;;;1.15;;
41943;SDS011;27636;52.610;13.244;2023-07-13T08:44:01;2.33;;;1.10;;
41943;SDS011;27636;52.610;13.244;2023-07-13T08:49:13;6.03;;;0.85;;
41943;SDS011;27636;52.610;13.244;2023-07-13T08:54:22;5.82;;;1.30;;
41943;SDS011;27636;52.610;13.244;2023-07-13T08:59:31;2.97;;;0.93;;
41943;SDS011;27636;52.610;13.244;2023-07-13T09:04:39;3.65;;;1.30;;
41943;SDS011;27636;52.610;13.244;2023-07-13T09:09:49;2.65;;;1.10;;
41943;SDS011;27636;52.610;13.244;2023-07-13T09:15:02;1.63;;;0.90;;
41943;SDS011;27636;52.610;13.244;2023-07-13T09:20:14;2.75;;;1.05;;
41943;SDS011;27636;52.610;13.244;2023-07-13T09:25:26;2.83;;;1.10;;
41943;SDS011;27636;52.610;13.244;2023-07-13T09:30:34;1.65;;;1.00;;
41943;SDS011;27636;52.610;13.244;2023-07-13T09:35:46;2.65;;;1.25;;
41943;SDS011;27636;52.610;13.244;2023-07-13T09:40:54;2.80;;;1.20;;
41943;SDS011;27636;52.610;13.244;2023-07-13T09:46:16;4.18;;;1.42;;
41943;SDS011;27636;52.610;13.244;2023-07-13T09:51:26;3.33;;;1.38;;
41943;SDS011;27636;52.610;13.244;2023-07-13T09:56:30;3.72;;;1.60;;
41943;SDS011;27636;52.610;13.244;2023-07-13T10:01:36;5.65;;;1.88;;
41943;SDS011;27636;52.610;13.244;2023-07-13T10:06:43;4.82;;;1.73;;
41943;SDS011;27636;52.610;13.244;2023-07-13T10:11:47;4.75;;;1.92;;
41943;SDS011;27636;52.610;13.244;2023-07-13T10:16:56;3.65;;;1.67;;
41943;SDS011;27636;52.610;13.244;2023-07-13T10:22:10;4.53;;;1.75;;
41943;SDS011;27636;52.610;13.244;2023-07-13T10:27:23;3.80;;;1.58;;
41943;SDS011;27636;52.610;13.244;2023-07-13T10:32:34;4.20;;;1.70;;
41943;SDS011;27636;52.610;13.244;2023-07-13T10:37:43;7.28;;;1.85;;
41943;SDS011;27636;52.610;13.244;2023-07-13T10:42:52;7.95;;;1.75;;
41943;SDS011;27636;52.610;13.244;2023-07-13T10:48:00;2.83;;;1.27;;
41943;SDS011;27636;52.610;13.244;2023-07-13T10:53:17;4.15;;;1.80;;
41943;SDS011;27636;52.610;13.244;2023-07-13T10:58:24;3.65;;;1.73;;
41943;SDS011;27636;52.610;13.244;2023-07-13T11:03:35;6.65;;;2.22;;
41943;SDS011;27636;52.610;13.244;2023-07-13T11:08:52;5.97;;;1.70;;
41943;SDS011;27636;52.610;13.244;2023-07-13T11:13:58;9.05;;;2.17;;
41943;SDS011;27636;52.610;13.244;2023-07-13T11:19:27;3.65;;;1.70;;
41943;SDS011;27636;52.610;13.244;2023-07-13T11:24:58;3.92;;;1.45;;
41943;SDS011;27636;52.610;13.244;2023-07-13T11:35:35;5.88;;;1.83;;
41943;SDS011;27636;52.610;13.244;2023-07-13T11:40:44;3.70;;;1.95;;
41943;SDS011;27636;52.610;13.244;2023-07-13T11:45:56;7.57;;;1.92;;
41943;SDS011;27636;52.610;13.244;2023-07-13T11:51:01;5.90;;;1.80;;
41943;SDS011;27636;52.610;13.244;2023-07-13T11:56:10;4.15;;;1.63;;
41943;SDS011;27636;52.610;13.244;2023-07-13T12:01:16;4.00;;;1.55;;
41943;SDS011;27636;52.610;13.244;2023-07-13T12:06:27;3.88;;;1.63;;
41943;SDS011;27636;52.610;13.244;2023-07-13T12:11:40;3.08;;;1.40;;
41943;SDS011;27636;52.610;13.244;2023-07-13T12:16:45;3.30;;;1.60;;
41943;SDS011;27636;52.610;13.244;2023-07-13T12:21:50;5.40;;;1.92;;
41943;SDS011;27636;52.610;13.244;2023-07-13T12:27:00;5.80;;;1.80;;
41943;SDS011;27636;52.610;13.244;2023-07-13T12:32:08;3.17;;;1.27;;
41943;SDS011;27636;52.610;13.244;2023-07-13T12:37:12;4.03;;;1.80;;
41943;SDS011;27636;52.610;13.244;2023-07-13T12:42:21;5.50;;;2.13;;
41943;SDS011;27636;52.610;13.244;2023-07-13T12:47:29;3.28;;;1.55;;
41943;SDS011;27636;52.610;13.244;2023-07-13T12:52:34;4.47;;;1.73;;
41943;SDS011;27636;52.610;13.244;2023-07-13T12:57:40;3.00;;;1.70;;
41943;SDS011;27636;52.610;13.244;2023-07-13T13:02:48;5.13;;;1.85;;
41943;SDS011;27636;52.610;13.244;2023-07-13T13:07:54;4.93;;;2.20;;
41943;SDS011;27636;52.610;13.244;2023-07-13T13:12:59;5.90;;;1.55;;
41943;SDS011;27636;52.610;13.244;2023-07-13T13:18:04;1.70;;;1.20;;
41943;SDS011;27636;52.610;13.244;2023-07-13T13:23:13;7.75;;;1.55;;
41943;SDS011;27636;52.610;13.244;2023-07-13T13:28:23;4.60;;;1.70;;
41943;SDS011;27636;52.610;13.244;2023-07-13T13:33:26;3.15;;;1.52;;
41943;SDS011;27636;52.610;13.244;2023-07-13T13:38:30;5.93;;;1.73;;
41943;SDS011;27636;52.610;13.244;2023-07-13T13:43:35;4.32;;;1.40;;
41943;SDS011;27636;52.610;13.244;2023-07-13T13:48:39;3.90;;;1.45;;
41943;SDS011;27636;52.610;13.244;2023-07-13T13:53:44;3.92;;;1.80;;
41943;SDS011;27636;52.610;13.244;2023-07-13T13:58:50;4.32;;;1.83;;
41943;SDS011;27636;52.610;13.244;2023-07-13T14:03:53;4.50;;;1.55;;
41943;SDS011;27636;52.610;13.244;2023-07-13T14:08:59;2.97;;;1.48;;
41943;SDS011;27636;52.610;13.244;2023-07-13T14:14:05;3.42;;;1.20;;
41943;SDS011;27636;52.610;13.244;2023-07-13T14:19:09;3.08;;;1.40;;
41943;SDS011;27636;52.610;13.244;2023-07-13T14:24:15;5.32;;;1.90;;
41943;SDS011;27636;52.610;13.244;2023-07-13T14:29:20;6.50;;;2.00;;
41943;SDS011;27636;52.610;13.244;2023-07-13T14:34:26;1.90;;;1.30;;
41943;SDS011;27636;52.610;13.244;2023-07-13T14:49:42;1.83;;;0.75;;
41943;SDS011;27636;52.610;13.244;2023-07-13T14:54:46;5.93;;;1.50;;
41943;SDS011;27636;52.610;13.244;2023-07-13T14:59:51;7.53;;;2.33;;
41943;SDS011;27636;52.610;13.244;2023-07-13T15:04:57;3.58;;;0.68;;
41943;SDS011;27636;52.610;13.244;2023-07-13T15:10:01;2.55;;;1.00;;
41943;SDS011;27636;52.610;13.244;2023-07-13T15:15:13;4.72;;;1.23;;
41943;SDS011;27636;52.610;13.244;2023-07-13T15:20:18;3.75;;;1.27;;
41943;SDS011;27636;52.610;13.244;2023-07-13T15:25:27;29.08;;;5.88;;
41943;SDS011;27636;52.610;13.244;2023-07-13T15:30:35;2.38;;;1.08;;
41943;SDS011;27636;52.610;13.244;2023-07-13T15:35:45;2.65;;;0.80;;
41943;SDS011;27636;52.610;13.244;2023-07-13T15:40:51;2.25;;;0.82;;
41943;SDS011;27636;52.610;13.244;2023-07-13T15:45:57;6.75;;;1.77;;
41943;SDS011;27636;52.610;13.244;2023-07-13T15:51:02;5.13;;;1.08;;
41943;SDS011;27636;52.610;13.244;2023-07-13T15:56:14;2.42;;;1.15;;
41943;SDS011;27636;52.610;13.244;2023-07-13T16:01:23;3.60;;;1.30;;
41943;SDS011;27636;52.610;13.244;2023-07-13T16:06:28;2.58;;;1.02;;
41943;SDS011;27636;52.610;13.244;2023-07-13T16:11:36;2.53;;;1.15;;
41943;SDS011;27636;52.610;13.244;2023-07-13T16:16:42;3.28;;;1.10;;
41943;SDS011;27636;52.610;13.244;2023-07-13T16:21:47;3.60;;;1.30;;
41943;SDS011;27636;52.610;13.244;2023-07-13T16:26:54;2.80;;;1.08;;
41943;SDS011;27636;52.610;13.244;2023-07-13T16:32:01;2.83;;;1.10;;
41943;SDS011;27636;52.610;13.244;2023-07-13T16:37:11;3.15;;;1.00;;
41943;SDS011;27636;52.610;13.244;2023-07-13T16:42:18;3.63;;;1.20;;
41943;SDS011;27636;52.610;13.244;2023-07-13T16:47:23;3.63;;;1.63;;
41943;SDS011;27636;52.610;13.244;2023-07-13T16:52:27;6.35;;;1.23;;
41943;SDS011;27636;52.610;13.244;2023-07-13T16:57:32;12.43;;;2.28;;
41943;SDS011;27636;52.610;13.244;2023-07-13T17:02:38;4.10;;;1.30;;
41943;SDS011;27636;52.610;13.244;2023-07-13T17:07:42;6.53;;;1.52;;
41943;SDS011;27636;52.610;13.244;2023-07-13T17:12:46;3.20;;;1.70;;
41943;SDS011;27636;52.610;13.244;2023-07-13T17:17:52;3.75;;;1.45;;
41943;SDS011;27636;52.610;13.244;2023-07-13T17:23:09;5.68;;;2.22;;
41943;SDS011;27636;52.610;13.244;2023-07-13T17:28:15;4.13;;;1.65;;
41943;SDS011;27636;52.610;13.244;2023-07-13T17:33:25;3.28;;;1.55;;
41943;SDS011;27636;52.610;13.244;2023-07-13T17:38:31;3.22;;;1.75;;
41943;SDS011;27636;52.610;13.244;2023-07-13T17:43:42;5.50;;;1.95;;
41943;SDS011;27636;52.610;13.244;2023-07-13T17:48:52;3.03;;;1.65;;
41943;SDS011;27636;52.610;13.244;2023-07-13T17:53:56;4.63;;;2.35;;
41943;SDS011;27636;52.610;13.244;2023-07-13T17:59:01;3.97;;;1.73;;
41943;SDS011;27636;52.610;13.244;2023-07-13T18:04:06;10.13;;;2.65;;
41943;SDS011;27636;52.610;13.244;2023-07-13T18:09:13;8.80;;;3.00;;
41943;SDS011;27636;52.610;13.244;2023-07-13T18:14:19;7.82;;;3.60;;
41943;SDS011;27636;52.610;13.244;2023-07-13T18:24:34;8.70;;;2.75;;
41943;SDS011;27636;52.610;13.244;2023-07-13T18:29:37;7.60;;;2.83;;
41943;SDS011;27636;52.610;13.244;2023-07-13T18:34:43;10.32;;;2.80;;
41943;SDS011;27636;52.610;13.244;2023-07-13T18:39:48;8.35;;;2.40;;
41943;SDS011;27636;52.610;13.244;2023-07-13T18:44:54;9.10;;;2.42;;
41943;SDS011;27636;52.610;13.244;2023-07-13T18:50:01;4.07;;;2.30;;
41943;SDS011;27636;52.610;13.244;2023-07-13T18:55:11;5.50;;;2.20;;
41943;SDS011;27636;52.610;13.244;2023-07-13T19:00:17;6.13;;;2.22;;
41943;SDS011;27636;52.610;13.244;2023-07-13T19:05:29;5.18;;;2.53;;
41943;SDS011;27636;52.610;13.244;2023-07-13T19:10:51;6.22;;;2.35;;
41943;SDS011;27636;52.610;13.244;2023-07-13T19:15:56;5.95;;;2.63;;
41943;SDS011;27636;52.610;13.244;2023-07-13T19:21:02;4.03;;;2.17;;
41943;SDS011;27636;52.610;13.244;2023-07-13T19:26:15;6.28;;;2.67;;
41943;SDS011;27636;52.610;13.244;2023-07-13T19:31:23;6.05;;;2.83;;
41943;SDS011;27636;52.610;13.244;2023-07-13T19:36:30;8.13;;;2.90;;
41943;SDS011;27636;52.610;13.244;2023-07-13T19:41:35;7.20;;;2.95;;
41943;SDS011;27636;52.610;13.244;2023-07-13T19:46:39;8.02;;;2.92;;
41943;SDS011;27636;52.610;13.244;2023-07-13T19:51:45;7.63;;;3.17;;
41943;SDS011;27636;52.610;13.244;2023-07-13T19:56:49;5.18;;;2.33;;
41943;SDS011;27636;52.610;13.244;2023-07-13T20:01:52;6.22;;;2.65;;
41943;SDS011;27636;52.610;13.244;2023-07-13T20:06:57;5.45;;;2.60;;
41943;SDS011;27636;52.610;13.244;2023-07-13T20:12:04;7.05;;;3.03;;
41943;SDS011;27636;52.610;13.244;2023-07-13T20:17:19;7.20;;;3.53;;
41943;SDS011;27636;52.610;13.244;2023-07-13T20:22:28;6.72;;;3.03;;
41943;SDS011;27636;52.610;13.244;2023-07-13T20:27:32;7.60;;;3.17;;
41943;SDS011;27636;52.610;13.244;2023-07-13T20:32:36;7.72;;;3.25;;
41943;SDS011;27636;52.610;13.244;2023-07-13T20:37:43;7.47;;;2.97;;
41943;SDS011;27636;52.610;13.244;2023-07-13T20:42:48;9.25;;;3.80;;
41943;SDS011;27636;52.610;13.244;2023-07-13T20:47:52;7.80;;;3.35;;
41943;SDS011;27636;52.610;13.244;2023-07-13T20:53:01;9.80;;;3.90;;
41943;SDS011;27636;52.610;13.244;2023-07-13T20:58:04;8.93;;;2.88;;
41943;SDS011;27636;52.610;13.244;2023-07-13T21:03:14;9.35;;;3.15;;
41943;SDS011;27636;52.610;13.244;2023-07-13T21:08:23;10.55;;;4.40;;
41943;SDS011;27636;52.610;13.244;2023-07-13T21:13:27;5.10;;;2.78;;
41943;SDS011;27636;52.610;13.244;2023-07-13T21:18:30;7.53;;;3.78;;
41943;SDS011;27636;52.610;13.244;2023-07-13T21:23:36;7.28;;;3.50;;
41943;SDS011;27636;52.610;13.244;2023-07-13T21:28:43;6.72;;;3.10;;
41943;SDS011;27636;52.610;13.244;2023-07-13T21:33:47;11.18;;;3.95;;
41943;SDS011;27636;52.610;13.244;2023-07-13T21:38:53;6.22;;;3.03;;
41943;SDS011;27636;52.610;13.244;2023-07-13T21:43:58;10.70;;;4.35;;
41943;SDS011;27636;52.610;13.244;2023-07-13T21:49:02;10.00;;;3.78;;
41943;SDS011;27636;52.610;13.244;2023-07-13T21:54:11;8.40;;;3.88;;
41943;SDS011;27636;52.610;13.244;2023-07-13T21:59:20;7.88;;;3.20;;
41943;SDS011;27636;52.610;13.244;2023-07-13T22:04:27;7.85;;;4.20;;
41943;SDS011;27636;52.610;13.244;2023-07-13T22:09:34;7.03;;;3.30;;
41943;SDS011;27636;52.610;13.244;2023-07-13T22:14:37;9.43;;;4.13;;
41943;SDS011;27636;52.610;13.244;2023-07-13T22:19:41;9.40;;;3.97;;
41943;SDS011;27636;52.610;13.244;2023-07-13T22:24:47;6.20;;;3.33;;
41943;SDS011;27636;52.610;13.244;2023-07-13T22:29:51;6.68;;;3.35;;
41943;SDS011;27636;52.610;13.244;2023-07-13T22:34:55;6.37;;;3.10;;
41943;SDS011;27636;52.610;13.244;2023-07-13T22:40:00;7.05;;;3.95;;
41943;SDS011;27636;52.610;13.244;2023-07-13T22:45:04;7.22;;;3.42;;
41943;SDS011;27636;52.610;13.244;2023-07-13T22:50:12;8.80;;;3.97;;
41943;SDS011;27636;52.610;13.244;2023-07-13T22:55:19;6.95;;;3.40;;
41943;SDS011;27636;52.610;13.244;2023-07-13T23:00:24;8.73;;;3.38;;
41943;SDS011;27636;52.610;13.244;2023-07-13T23:05:27;5.80;;;3.13;;
41943;SDS011;27636;52.610;13.244;2023-07-13T23:10:32;6.32;;;3.10;;
41943;SDS011;27636;52.610;13.244;2023-07-13T23:15:36;6.45;;;3.20;;
41943;SDS011;27636;52.610;13.244;2023-07-13T23:20:40;5.85;;;2.72;;
41943;SDS011;27636;52.610;13.244;2023-07-13T23:25:45;6.95;;;3.47;;
41943;SDS011;27636;52.610;13.244;2023-07-13T23:30:49;7.95;;;3.45;;
41943;SDS011;27636;52.610;13.244;2023-07-13T23:35:53;6.60;;;3.60;;
41943;SDS011;27636;52.610;13.244;2023-07-13T23:41:04;5.97;;;3.10;;
41943;SDS011;27636;52.610;13.244;2023-07-13T23:46:18;8.48;;;2.83;;
41943;SDS011;27636;52.610;13.244;2023-07-13T23:51:26;8.70;;;4.07;;
41943;SDS011;27636;52.610;13.244;2023-07-13T23:56:32;6.90;;;3.53;;
